sensor_id;sensor_type;location;lat;lon;timestamp;P1;durP1;ratioP1;P2;durP2;ratioP2
81799;SDS011;71195;52.528;5.704;2023-11-21T00:01:36;13.02;;;6.32;;
81799;SDS011;71195;52.528;5.704;2023-11-21T00:04:05;14.20;;;5.68;;
81799;SDS011;71195;52.528;5.704;2023-11-21T00:06:38;14.02;;;5.93;;
81799;SDS011;71195;52.528;5.704;2023-11-21T00:09:07;12.48;;;5.72;;
81799;SDS011;71195;52.528;5.704;2023-11-21T00:11:38;12.30;;;5.32;;
81799;SDS011;71195;52.528;5.704;2023-11-21T00:14:07;15.38;;;6.32;;
81799;SDS011;71195;52.528;5.704;2023-11-21T00:16:36;19.17;;;7.30;;
81799;SDS011;71195;52.528;5.704;2023-11-21T00:19:06;16.55;;;6.15;;
81799;SDS011;71195;52.528;5.704;2023-11-21T00:21:37;14.10;;;5.65;;
81799;SDS011;71195;52.528;5.704;2023-11-21T00:24:09;13.57;;;5.82;;
81799;SDS011;71195;52.528;5.704;2023-11-21T00:26:39;11.90;;;6.05;;
81799;SDS011;71195;52.528;5.704;2023-11-21T00:29:08;17.05;;;5.13;;
81799;SDS011;71195;52.528;5.704;2023-11-21T00:31:38;13.32;;;5.82;;
81799;SDS011;71195;52.528;5.704;2023-11-21T00:34:07;13.38;;;5.05;;
81799;SDS011;71195;52.528;5.704;2023-11-21T00:36:38;17.23;;;7.68;;
81799;SDS011;71195;52.528;5.704;2023-11-21T00:39:08;15.57;;;5.93;;
81799;SDS011;71195;52.528;5.704;2023-11-21T00:41:37;14.48;;;5.85;;
81799;SDS011;71195;52.528;5.704;2023-11-21T00:44:07;17.00;;;5.20;;
81799;SDS011;71195;52.528;5.704;2023-11-21T00:46:36;13.10;;;6.28;;
81799;SDS011;71195;52.528;5.704;2023-11-21T00:49:05;17.00;;;5.65;;
81799;SDS011;71195;52.528;5.704;2023-11-21T00:51:34;17.55;;;6.20;;
81799;SDS011;71195;52.528;5.704;2023-11-21T00:54:07;17.25;;;7.45;;
81799;SDS011;71195;52.528;5.704;2023-11-21T00:56:37;13.52;;;6.63;;
81799;SDS011;71195;52.528;5.704;2023-11-21T00:59:07;12.90;;;5.82;;
81799;SDS011;71195;52.528;5.704;2023-11-21T01:01:36;12.82;;;5.82;;
81799;SDS011;71195;52.528;5.704;2023-11-21T01:04:06;13.25;;;5.72;;
81799;SDS011;71195;52.528;5.704;2023-11-21T01:06:35;13.68;;;5.88;;
81799;SDS011;71195;52.528;5.704;2023-11-21T01:09:04;16.80;;;6.15;;
81799;SDS011;71195;52.528;5.704;2023-11-21T01:11:36;17.75;;;6.63;;
81799;SDS011;71195;52.528;5.704;2023-11-21T01:14:05;18.48;;;5.90;;
81799;SDS011;71195;52.528;5.704;2023-11-21T01:16:36;15.05;;;6.05;;
81799;SDS011;71195;52.528;5.704;2023-11-21T01:19:05;16.15;;;7.38;;
81799;SDS011;71195;52.528;5.704;2023-11-21T01:21:35;14.90;;;5.70;;
81799;SDS011;71195;52.528;5.704;2023-11-21T01:24:04;14.88;;;5.97;;
81799;SDS011;71195;52.528;5.704;2023-11-21T01:26:37;11.55;;;5.72;;
81799;SDS011;71195;52.528;5.704;2023-11-21T01:29:06;18.95;;;6.05;;
81799;SDS011;71195;52.528;5.704;2023-11-21T01:31:35;14.95;;;5.40;;
81799;SDS011;71195;52.528;5.704;2023-11-21T01:34:05;13.00;;;4.60;;
81799;SDS011;71195;52.528;5.704;2023-11-21T01:36:34;11.60;;;5.53;;
81799;SDS011;71195;52.528;5.704;2023-11-21T01:39:05;17.63;;;6.53;;
81799;SDS011;71195;52.528;5.704;2023-11-21T01:41:37;14.32;;;5.60;;
81799;SDS011;71195;52.528;5.704;2023-11-21T01:44:06;15.10;;;5.68;;
81799;SDS011;71195;52.528;5.704;2023-11-21T01:46:35;13.57;;;5.50;;
81799;SDS011;71195;52.528;5.704;2023-11-21T01:49:04;11.18;;;5.07;;
81799;SDS011;71195;52.528;5.704;2023-11-21T01:51:35;15.55;;;5.20;;
81799;SDS011;71195;52.528;5.704;2023-11-21T01:54:05;12.85;;;6.57;;
81799;SDS011;71195;52.528;5.704;2023-11-21T01:56:40;11.13;;;6.03;;
81799;SDS011;71195;52.528;5.704;2023-11-21T01:59:09;13.50;;;4.97;;
81799;SDS011;71195;52.528;5.704;2023-11-21T02:01:39;11.73;;;5.28;;
81799;SDS011;71195;52.528;5.704;2023-11-21T02:04:08;15.00;;;6.65;;
81799;SDS011;71195;52.528;5.704;2023-11-21T02:06:37;14.50;;;5.15;;
81799;SDS011;71195;52.528;5.704;2023-11-21T02:09:06;13.90;;;6.70;;
81799;SDS011;71195;52.528;5.704;2023-11-21T02:11:36;12.00;;;5.32;;
81799;SDS011;71195;52.528;5.704;2023-11-21T02:14:07;11.90;;;5.53;;
81799;SDS011;71195;52.528;5.704;2023-11-21T02:16:36;15.07;;;6.30;;
81799;SDS011;71195;52.528;5.704;2023-11-21T02:19:07;17.02;;;6.70;;
81799;SDS011;71195;52.528;5.704;2023-11-21T02:21:39;13.43;;;5.28;;
81799;SDS011;71195;52.528;5.704;2023-11-21T02:24:13;17.23;;;5.63;;
81799;SDS011;71195;52.528;5.704;2023-11-21T02:26:43;12.93;;;5.75;;
81799;SDS011;71195;52.528;5.704;2023-11-21T02:29:12;13.65;;;5.35;;
81799;SDS011;71195;52.528;5.704;2023-11-21T02:31:45;14.13;;;4.63;;
81799;SDS011;71195;52.528;5.704;2023-11-21T02:34:17;15.82;;;6.07;;
81799;SDS011;71195;52.528;5.704;2023-11-21T02:36:46;13.07;;;4.88;;
81799;SDS011;71195;52.528;5.704;2023-11-21T02:39:19;14.60;;;6.88;;
81799;SDS011;71195;52.528;5.704;2023-11-21T02:41:50;13.48;;;5.70;;
81799;SDS011;71195;52.528;5.704;2023-11-21T02:44:19;11.82;;;5.32;;
81799;SDS011;71195;52.528;5.704;2023-11-21T02:46:48;13.93;;;4.68;;
81799;SDS011;71195;52.528;5.704;2023-11-21T02:49:17;12.52;;;4.90;;
81799;SDS011;71195;52.528;5.704;2023-11-21T02:51:46;13.15;;;5.63;;
81799;SDS011;71195;52.528;5.704;2023-11-21T02:54:15;12.98;;;4.50;;
81799;SDS011;71195;52.528;5.704;2023-11-21T02:56:47;11.07;;;5.07;;
81799;SDS011;71195;52.528;5.704;2023-11-21T02:59:17;11.48;;;5.40;;
81799;SDS011;71195;52.528;5.704;2023-11-21T03:01:46;18.85;;;6.30;;
81799;SDS011;71195;52.528;5.704;2023-11-21T03:04:15;10.40;;;4.53;;
81799;SDS011;71195;52.528;5.704;2023-11-21T03:06:45;11.55;;;4.88;;
81799;SDS011;71195;52.528;5.704;2023-11-21T03:09:15;13.73;;;6.10;;
81799;SDS011;71195;52.528;5.704;2023-11-21T03:11:46;12.27;;;5.18;;
81799;SDS011;71195;52.528;5.704;2023-11-21T03:14:15;15.07;;;5.60;;
81799;SDS011;71195;52.528;5.704;2023-11-21T03:16:45;14.60;;;6.20;;
81799;SDS011;71195;52.528;5.704;2023-11-21T03:19:15;11.45;;;4.88;;
81799;SDS011;71195;52.528;5.704;2023-11-21T03:21:44;17.35;;;5.95;;
81799;SDS011;71195;52.528;5.704;2023-11-21T03:24:13;14.48;;;5.00;;
81799;SDS011;71195;52.528;5.704;2023-11-21T03:26:46;13.45;;;4.55;;
81799;SDS011;71195;52.528;5.704;2023-11-21T03:29:17;12.80;;;4.82;;
81799;SDS011;71195;52.528;5.704;2023-11-21T03:31:46;11.88;;;4.60;;
81799;SDS011;71195;52.528;5.704;2023-11-21T03:34:23;11.77;;;4.70;;
81799;SDS011;71195;52.528;5.704;2023-11-21T03:36:54;14.85;;;4.47;;
81799;SDS011;71195;52.528;5.704;2023-11-21T03:39:24;11.85;;;4.72;;
81799;SDS011;71195;52.528;5.704;2023-11-21T03:41:57;15.55;;;5.05;;
81799;SDS011;71195;52.528;5.704;2023-11-21T03:44:26;11.25;;;4.75;;
81799;SDS011;71195;52.528;5.704;2023-11-21T03:46:55;11.73;;;5.43;;
81799;SDS011;71195;52.528;5.704;2023-11-21T03:49:25;14.45;;;5.30;;
81799;SDS011;71195;52.528;5.704;2023-11-21T03:51:55;12.68;;;4.00;;
81799;SDS011;71195;52.528;5.704;2023-11-21T03:54:25;14.32;;;4.85;;
81799;SDS011;71195;52.528;5.704;2023-11-21T03:56:54;13.77;;;5.70;;
81799;SDS011;71195;52.528;5.704;2023-11-21T03:59:25;10.23;;;4.50;;
81799;SDS011;71195;52.528;5.704;2023-11-21T04:01:55;11.25;;;4.93;;
81799;SDS011;71195;52.528;5.704;2023-11-21T04:04:24;14.23;;;4.85;;
81799;SDS011;71195;52.528;5.704;2023-11-21T04:06:53;14.27;;;6.30;;
81799;SDS011;71195;52.528;5.704;2023-11-21T04:09:22;10.63;;;5.68;;
81799;SDS011;71195;52.528;5.704;2023-11-21T04:11:52;11.85;;;5.25;;
81799;SDS011;71195;52.528;5.704;2023-11-21T04:14:21;12.20;;;4.47;;
81799;SDS011;71195;52.528;5.704;2023-11-21T04:16:53;14.27;;;4.38;;
81799;SDS011;71195;52.528;5.704;2023-11-21T04:19:23;12.60;;;4.95;;
81799;SDS011;71195;52.528;5.704;2023-11-21T04:21:52;12.90;;;4.53;;
81799;SDS011;71195;52.528;5.704;2023-11-21T04:24:21;14.40;;;5.25;;
81799;SDS011;71195;52.528;5.704;2023-11-21T04:26:50;13.07;;;4.57;;
81799;SDS011;71195;52.528;5.704;2023-11-21T04:29:19;13.02;;;5.80;;
81799;SDS011;71195;52.528;5.704;2023-11-21T04:31:48;15.07;;;5.35;;
81799;SDS011;71195;52.528;5.704;2023-11-21T04:34:20;12.52;;;5.03;;
81799;SDS011;71195;52.528;5.704;2023-11-21T04:36:49;12.65;;;5.30;;
81799;SDS011;71195;52.528;5.704;2023-11-21T04:39:18;14.23;;;4.75;;
81799;SDS011;71195;52.528;5.704;2023-11-21T04:41:47;14.13;;;4.75;;
81799;SDS011;71195;52.528;5.704;2023-11-21T04:44:16;10.02;;;4.65;;
81799;SDS011;71195;52.528;5.704;2023-11-21T04:46:45;11.35;;;5.15;;
81799;SDS011;71195;52.528;5.704;2023-11-21T04:49:14;12.60;;;4.95;;
81799;SDS011;71195;52.528;5.704;2023-11-21T04:51:46;11.35;;;4.25;;
81799;SDS011;71195;52.528;5.704;2023-11-21T04:54:15;13.50;;;5.13;;
81799;SDS011;71195;52.528;5.704;2023-11-21T04:56:45;9.77;;;4.40;;
81799;SDS011;71195;52.528;5.704;2023-11-21T04:59:14;11.15;;;4.88;;
81799;SDS011;71195;52.528;5.704;2023-11-21T05:01:43;9.57;;;3.83;;
81799;SDS011;71195;52.528;5.704;2023-11-21T05:04:12;9.40;;;3.90;;
81799;SDS011;71195;52.528;5.704;2023-11-21T05:06:41;11.60;;;4.53;;
81799;SDS011;71195;52.528;5.704;2023-11-21T05:09:14;12.13;;;4.70;;
81799;SDS011;71195;52.528;5.704;2023-11-21T05:11:43;10.60;;;5.13;;
81799;SDS011;71195;52.528;5.704;2023-11-21T05:14:12;11.27;;;4.57;;
81799;SDS011;71195;52.528;5.704;2023-11-21T05:16:42;13.98;;;3.78;;
81799;SDS011;71195;52.528;5.704;2023-11-21T05:19:11;12.68;;;4.53;;
81799;SDS011;71195;52.528;5.704;2023-11-21T05:21:40;11.00;;;3.95;;
81799;SDS011;71195;52.528;5.704;2023-11-21T05:24:09;9.45;;;4.05;;
81799;SDS011;71195;52.528;5.704;2023-11-21T05:26:41;10.05;;;3.47;;
81799;SDS011;71195;52.528;5.704;2023-11-21T05:29:10;8.60;;;2.95;;
81799;SDS011;71195;52.528;5.704;2023-11-21T05:31:39;10.63;;;3.45;;
81799;SDS011;71195;52.528;5.704;2023-11-21T05:34:08;11.95;;;4.28;;
81799;SDS011;71195;52.528;5.704;2023-11-21T05:36:38;11.13;;;3.55;;
81799;SDS011;71195;52.528;5.704;2023-11-21T05:39:07;8.75;;;2.47;;
81799;SDS011;71195;52.528;5.704;2023-11-21T05:41:37;7.68;;;2.45;;
81799;SDS011;71195;52.528;5.704;2023-11-21T05:44:08;8.52;;;3.20;;
81799;SDS011;71195;52.528;5.704;2023-11-21T05:46:40;9.23;;;3.22;;
81799;SDS011;71195;52.528;5.704;2023-11-21T05:49:09;7.03;;;2.70;;
81799;SDS011;71195;52.528;5.704;2023-11-21T05:51:38;6.60;;;2.42;;
81799;SDS011;71195;52.528;5.704;2023-11-21T05:54:07;6.22;;;2.53;;
81799;SDS011;71195;52.528;5.704;2023-11-21T05:56:36;9.68;;;3.42;;
81799;SDS011;71195;52.528;5.704;2023-11-21T05:59:06;5.68;;;2.80;;
81799;SDS011;71195;52.528;5.704;2023-11-21T06:01:37;7.00;;;2.20;;
81799;SDS011;71195;52.528;5.704;2023-11-21T06:04:06;6.88;;;2.47;;
81799;SDS011;71195;52.528;5.704;2023-11-21T06:06:36;11.77;;;3.47;;
81799;SDS011;71195;52.528;5.704;2023-11-21T06:09:05;4.43;;;3.05;;
81799;SDS011;71195;52.528;5.704;2023-11-21T06:11:34;8.00;;;3.30;;
81799;SDS011;71195;52.528;5.704;2023-11-21T06:14:04;5.13;;;2.15;;
81799;SDS011;71195;52.528;5.704;2023-11-21T06:16:37;7.10;;;1.90;;
81799;SDS011;71195;52.528;5.704;2023-11-21T06:19:07;4.80;;;1.73;;
81799;SDS011;71195;52.528;5.704;2023-11-21T06:21:36;4.88;;;1.48;;
81799;SDS011;71195;52.528;5.704;2023-11-21T06:24:06;6.72;;;1.40;;
81799;SDS011;71195;52.528;5.704;2023-11-21T06:26:35;5.78;;;1.35;;
81799;SDS011;71195;52.528;5.704;2023-11-21T06:29:04;5.55;;;1.33;;
81799;SDS011;71195;52.528;5.704;2023-11-21T06:31:33;4.90;;;1.38;;
81799;SDS011;71195;52.528;5.704;2023-11-21T06:34:05;5.53;;;1.92;;
81799;SDS011;71195;52.528;5.704;2023-11-21T06:36:35;7.53;;;1.50;;
81799;SDS011;71195;52.528;5.704;2023-11-21T06:39:04;5.35;;;2.08;;
81799;SDS011;71195;52.528;5.704;2023-11-21T06:41:34;5.53;;;1.98;;
81799;SDS011;71195;52.528;5.704;2023-11-21T06:44:04;7.57;;;1.67;;
81799;SDS011;71195;52.528;5.704;2023-11-21T06:46:34;7.10;;;2.08;;
81799;SDS011;71195;52.528;5.704;2023-11-21T06:49:06;8.82;;;3.03;;
81799;SDS011;71195;52.528;5.704;2023-11-21T06:51:35;10.13;;;2.40;;
81799;SDS011;71195;52.528;5.704;2023-11-21T06:54:05;10.35;;;3.10;;
81799;SDS011;71195;52.528;5.704;2023-11-21T06:56:34;8.75;;;2.88;;
81799;SDS011;71195;52.528;5.704;2023-11-21T06:59:04;7.07;;;1.60;;
81799;SDS011;71195;52.528;5.704;2023-11-21T07:01:34;7.15;;;2.60;;
81799;SDS011;71195;52.528;5.704;2023-11-21T07:04:07;6.03;;;2.50;;
81799;SDS011;71195;52.528;5.704;2023-11-21T07:06:36;9.95;;;3.05;;
81799;SDS011;71195;52.528;5.704;2023-11-21T07:09:05;9.10;;;2.67;;
81799;SDS011;71195;52.528;5.704;2023-11-21T07:11:35;6.65;;;3.00;;
81799;SDS011;71195;52.528;5.704;2023-11-21T07:14:04;7.88;;;2.30;;
81799;SDS011;71195;52.528;5.704;2023-11-21T07:16:34;5.90;;;1.90;;
81799;SDS011;71195;52.528;5.704;2023-11-21T07:19:03;6.35;;;2.28;;
81799;SDS011;71195;52.528;5.704;2023-11-21T07:21:35;6.43;;;2.25;;
81799;SDS011;71195;52.528;5.704;2023-11-21T07:24:05;5.40;;;2.97;;
81799;SDS011;71195;52.528;5.704;2023-11-21T07:26:37;4.97;;;1.73;;
81799;SDS011;71195;52.528;5.704;2023-11-21T07:29:06;7.07;;;2.50;;
81799;SDS011;71195;52.528;5.704;2023-11-21T07:31:37;8.73;;;2.50;;
81799;SDS011;71195;52.528;5.704;2023-11-21T07:34:09;6.10;;;2.05;;
81799;SDS011;71195;52.528;5.704;2023-11-21T07:36:38;8.57;;;2.47;;
81799;SDS011;71195;52.528;5.704;2023-11-21T07:39:08;6.10;;;2.28;;
81799;SDS011;71195;52.528;5.704;2023-11-21T07:41:37;6.75;;;2.40;;
81799;SDS011;71195;52.528;5.704;2023-11-21T07:44:10;6.70;;;2.25;;
81799;SDS011;71195;52.528;5.704;2023-11-21T07:46:39;6.88;;;2.08;;
81799;SDS011;71195;52.528;5.704;2023-11-21T07:49:11;5.07;;;2.03;;
81799;SDS011;71195;52.528;5.704;2023-11-21T07:51:41;7.22;;;2.85;;
81799;SDS011;71195;52.528;5.704;2023-11-21T07:54:10;5.85;;;2.00;;
81799;SDS011;71195;52.528;5.704;2023-11-21T07:56:40;7.25;;;3.13;;
81799;SDS011;71195;52.528;5.704;2023-11-21T07:59:09;7.30;;;2.05;;
81799;SDS011;71195;52.528;5.704;2023-11-21T08:01:38;6.63;;;2.25;;
81799;SDS011;71195;52.528;5.704;2023-11-21T08:04:11;7.63;;;1.90;;
81799;SDS011;71195;52.528;5.704;2023-11-21T08:06:40;7.45;;;1.95;;
81799;SDS011;71195;52.528;5.704;2023-11-21T08:09:09;6.40;;;2.35;;
81799;SDS011;71195;52.528;5.704;2023-11-21T08:11:39;8.52;;;2.83;;
81799;SDS011;71195;52.528;5.704;2023-11-21T08:14:08;6.88;;;1.83;;
81799;SDS011;71195;52.528;5.704;2023-11-21T08:16:37;5.00;;;2.08;;
81799;SDS011;71195;52.528;5.704;2023-11-21T08:19:06;6.03;;;1.58;;
81799;SDS011;71195;52.528;5.704;2023-11-21T08:21:37;5.05;;;1.45;;
81799;SDS011;71195;52.528;5.704;2023-11-21T08:24:07;5.65;;;2.10;;
81799;SDS011;71195;52.528;5.704;2023-11-21T08:26:37;5.68;;;2.00;;
81799;SDS011;71195;52.528;5.704;2023-11-21T08:29:06;6.60;;;2.30;;
81799;SDS011;71195;52.528;5.704;2023-11-21T08:31:35;7.47;;;2.05;;
81799;SDS011;71195;52.528;5.704;2023-11-21T08:34:05;6.00;;;2.53;;
81799;SDS011;71195;52.528;5.704;2023-11-21T08:36:34;4.85;;;1.58;;
81799;SDS011;71195;52.528;5.704;2023-11-21T08:39:06;5.93;;;1.70;;
81799;SDS011;71195;52.528;5.704;2023-11-21T08:41:35;6.25;;;1.67;;
81799;SDS011;71195;52.528;5.704;2023-11-21T08:44:05;5.55;;;1.83;;
81799;SDS011;71195;52.528;5.704;2023-11-21T08:46:34;7.75;;;2.05;;
81799;SDS011;71195;52.528;5.704;2023-11-21T08:49:05;6.55;;;1.85;;
81799;SDS011;71195;52.528;5.704;2023-11-21T08:51:34;5.22;;;1.90;;
81799;SDS011;71195;52.528;5.704;2023-11-21T08:54:06;6.85;;;1.88;;
81799;SDS011;71195;52.528;5.704;2023-11-21T08:56:37;5.18;;;1.52;;
81799;SDS011;71195;52.528;5.704;2023-11-21T08:59:06;4.28;;;1.30;;
81799;SDS011;71195;52.528;5.704;2023-11-21T09:01:35;4.40;;;1.02;;
81799;SDS011;71195;52.528;5.704;2023-11-21T09:04:05;5.07;;;2.20;;
81799;SDS011;71195;52.528;5.704;2023-11-21T09:06:34;5.78;;;1.85;;
81799;SDS011;71195;52.528;5.704;2023-11-21T09:09:06;7.80;;;2.25;;
81799;SDS011;71195;52.528;5.704;2023-11-21T09:11:35;5.18;;;2.10;;
81799;SDS011;71195;52.528;5.704;2023-11-21T09:14:05;4.55;;;2.00;;
81799;SDS011;71195;52.528;5.704;2023-11-21T09:16:35;6.72;;;2.30;;
81799;SDS011;71195;52.528;5.704;2023-11-21T09:19:05;5.72;;;2.00;;
81799;SDS011;71195;52.528;5.704;2023-11-21T09:21:34;7.40;;;2.78;;
81799;SDS011;71195;52.528;5.704;2023-11-21T09:24:06;7.07;;;2.55;;
81799;SDS011;71195;52.528;5.704;2023-11-21T09:26:36;6.20;;;2.58;;
81799;SDS011;71195;52.528;5.704;2023-11-21T09:29:06;4.93;;;2.40;;
81799;SDS011;71195;52.528;5.704;2023-11-21T09:31:35;5.93;;;2.00;;
81799;SDS011;71195;52.528;5.704;2023-11-21T09:34:04;8.30;;;2.67;;
81799;SDS011;71195;52.528;5.704;2023-11-21T09:36:33;8.27;;;2.72;;
81799;SDS011;71195;52.528;5.704;2023-11-21T09:39:07;7.28;;;2.15;;
81799;SDS011;71195;52.528;5.704;2023-11-21T09:44:12;5.00;;;1.90;;
81799;SDS011;71195;52.528;5.704;2023-11-21T09:46:47;6.22;;;2.03;;
81799;SDS011;71195;52.528;5.704;2023-11-21T09:49:20;9.27;;;2.75;;
81799;SDS011;71195;52.528;5.704;2023-11-21T09:51:54;6.53;;;2.47;;
81799;SDS011;71195;52.528;5.704;2023-11-21T09:54:27;6.13;;;2.05;;
81799;SDS011;71195;52.528;5.704;2023-11-21T09:56:57;6.57;;;2.85;;
81799;SDS011;71195;52.528;5.704;2023-11-21T09:59:28;8.25;;;2.97;;
81799;SDS011;71195;52.528;5.704;2023-11-21T10:01:59;5.47;;;1.85;;
81799;SDS011;71195;52.528;5.704;2023-11-21T10:04:29;8.25;;;2.60;;
81799;SDS011;71195;52.528;5.704;2023-11-21T10:07:00;8.02;;;3.10;;
81799;SDS011;71195;52.528;5.704;2023-11-21T10:09:32;5.82;;;2.30;;
81799;SDS011;71195;52.528;5.704;2023-11-21T10:12:02;8.73;;;2.85;;
81799;SDS011;71195;52.528;5.704;2023-11-21T10:14:36;8.30;;;3.13;;
81799;SDS011;71195;52.528;5.704;2023-11-21T10:17:10;9.50;;;2.92;;
81799;SDS011;71195;52.528;5.704;2023-11-21T10:19:41;7.70;;;2.22;;
81799;SDS011;71195;52.528;5.704;2023-11-21T10:22:11;9.95;;;2.85;;
81799;SDS011;71195;52.528;5.704;2023-11-21T10:24:45;10.07;;;3.17;;
81799;SDS011;71195;52.528;5.704;2023-11-21T10:27:14;8.05;;;3.33;;
81799;SDS011;71195;52.528;5.704;2023-11-21T10:29:44;8.02;;;3.15;;
81799;SDS011;71195;52.528;5.704;2023-11-21T10:32:13;9.68;;;3.92;;
81799;SDS011;71195;52.528;5.704;2023-11-21T10:34:42;9.48;;;3.45;;
81799;SDS011;71195;52.528;5.704;2023-11-21T10:37:25;7.72;;;3.38;;
81799;SDS011;71195;52.528;5.704;2023-11-21T10:39:59;10.45;;;3.78;;
81799;SDS011;71195;52.528;5.704;2023-11-21T10:42:31;8.98;;;3.03;;
81799;SDS011;71195;52.528;5.704;2023-11-21T10:45:01;9.63;;;3.13;;
81799;SDS011;71195;52.528;5.704;2023-11-21T10:47:37;9.43;;;3.20;;
81799;SDS011;71195;52.528;5.704;2023-11-21T10:50:07;6.30;;;2.28;;
81799;SDS011;71195;52.528;5.704;2023-11-21T10:52:37;8.15;;;2.78;;
81799;SDS011;71195;52.528;5.704;2023-11-21T10:55:18;6.38;;;2.95;;
81799;SDS011;71195;52.528;5.704;2023-11-21T10:57:52;6.45;;;2.22;;
81799;SDS011;71195;52.528;5.704;2023-11-21T11:00:22;4.50;;;1.38;;
81799;SDS011;71195;52.528;5.704;2023-11-21T11:02:52;6.07;;;1.77;;
81799;SDS011;71195;52.528;5.704;2023-11-21T11:05:22;6.30;;;2.10;;
81799;SDS011;71195;52.528;5.704;2023-11-21T11:07:58;6.53;;;1.90;;
81799;SDS011;71195;52.528;5.704;2023-11-21T11:10:34;4.55;;;1.42;;
81799;SDS011;71195;52.528;5.704;2023-11-21T11:13:04;3.70;;;1.48;;
81799;SDS011;71195;52.528;5.704;2023-11-21T11:15:35;5.18;;;2.00;;
81799;SDS011;71195;52.528;5.704;2023-11-21T11:18:04;5.63;;;1.27;;
81799;SDS011;71195;52.528;5.704;2023-11-21T11:20:35;4.15;;;1.25;;
81799;SDS011;71195;52.528;5.704;2023-11-21T11:23:13;6.53;;;1.63;;
81799;SDS011;71195;52.528;5.704;2023-11-21T11:26:02;4.07;;;1.02;;
81799;SDS011;71195;52.528;5.704;2023-11-21T11:28:43;7.25;;;1.63;;
81799;SDS011;71195;52.528;5.704;2023-11-21T11:31:18;3.70;;;1.42;;
81799;SDS011;71195;52.528;5.704;2023-11-21T11:34:01;3.63;;;1.45;;
81799;SDS011;71195;52.528;5.704;2023-11-21T11:36:42;3.40;;;1.10;;
81799;SDS011;71195;52.528;5.704;2023-11-21T11:39:29;5.40;;;1.38;;
81799;SDS011;71195;52.528;5.704;2023-11-21T11:42:02;4.22;;;1.20;;
81799;SDS011;71195;52.528;5.704;2023-11-21T11:47:21;4.50;;;1.92;;
81799;SDS011;71195;52.528;5.704;2023-11-21T11:50:00;4.05;;;1.25;;
81799;SDS011;71195;52.528;5.704;2023-11-21T11:52:37;4.72;;;1.90;;
81799;SDS011;71195;52.528;5.704;2023-11-21T11:55:09;7.03;;;2.38;;
81799;SDS011;71195;52.528;5.704;2023-11-21T11:57:42;6.72;;;2.08;;
81799;SDS011;71195;52.528;5.704;2023-11-21T12:00:16;6.57;;;2.45;;
81799;SDS011;71195;52.528;5.704;2023-11-21T12:02:51;7.15;;;2.28;;
81799;SDS011;71195;52.528;5.704;2023-11-21T12:05:22;7.45;;;2.67;;
81799;SDS011;71195;52.528;5.704;2023-11-21T12:07:53;7.50;;;2.78;;
81799;SDS011;71195;52.528;5.704;2023-11-21T12:10:24;7.78;;;3.03;;
81799;SDS011;71195;52.528;5.704;2023-11-21T12:12:57;10.23;;;3.35;;
81799;SDS011;71195;52.528;5.704;2023-11-21T12:15:27;9.05;;;3.55;;
81799;SDS011;71195;52.528;5.704;2023-11-21T12:17:57;9.35;;;3.40;;
81799;SDS011;71195;52.528;5.704;2023-11-21T12:20:27;9.23;;;3.50;;
81799;SDS011;71195;52.528;5.704;2023-11-21T12:22:57;8.73;;;3.50;;
81799;SDS011;71195;52.528;5.704;2023-11-21T12:25:28;9.05;;;3.40;;
81799;SDS011;71195;52.528;5.704;2023-11-21T12:28:01;8.13;;;3.63;;
81799;SDS011;71195;52.528;5.704;2023-11-21T12:30:36;11.20;;;3.70;;
81799;SDS011;71195;52.528;5.704;2023-11-21T12:33:06;11.07;;;4.32;;
81799;SDS011;71195;52.528;5.704;2023-11-21T12:35:35;12.15;;;4.72;;
81799;SDS011;71195;52.528;5.704;2023-11-21T12:38:05;11.82;;;4.82;;
81799;SDS011;71195;52.528;5.704;2023-11-21T12:40:34;12.13;;;4.38;;
81799;SDS011;71195;52.528;5.704;2023-11-21T12:43:06;11.38;;;4.82;;
81799;SDS011;71195;52.528;5.704;2023-11-21T12:45:36;12.07;;;3.78;;
81799;SDS011;71195;52.528;5.704;2023-11-21T12:48:05;11.38;;;4.38;;
81799;SDS011;71195;52.528;5.704;2023-11-21T12:50:37;9.95;;;3.55;;
81799;SDS011;71195;52.528;5.704;2023-11-21T12:53:07;10.43;;;3.90;;
81799;SDS011;71195;52.528;5.704;2023-11-21T12:55:38;12.52;;;4.25;;
81799;SDS011;71195;52.528;5.704;2023-11-21T12:58:10;10.07;;;4.20;;
81799;SDS011;71195;52.528;5.704;2023-11-21T13:00:40;10.50;;;4.35;;
81799;SDS011;71195;52.528;5.704;2023-11-21T13:03:12;9.75;;;3.92;;
81799;SDS011;71195;52.528;5.704;2023-11-21T13:05:49;10.00;;;3.80;;
81799;SDS011;71195;52.528;5.704;2023-11-21T13:08:19;9.93;;;3.75;;
81799;SDS011;71195;52.528;5.704;2023-11-21T13:10:50;9.20;;;4.05;;
81799;SDS011;71195;52.528;5.704;2023-11-21T13:13:24;9.13;;;4.20;;
81799;SDS011;71195;52.528;5.704;2023-11-21T13:15:59;9.43;;;3.78;;
81799;SDS011;71195;52.528;5.704;2023-11-21T13:18:30;10.82;;;4.35;;
81799;SDS011;71195;52.528;5.704;2023-11-21T13:21:02;14.25;;;4.65;;
81799;SDS011;71195;52.528;5.704;2023-11-21T13:23:37;13.60;;;4.63;;
81799;SDS011;71195;52.528;5.704;2023-11-21T13:26:07;10.15;;;3.88;;
81799;SDS011;71195;52.528;5.704;2023-11-21T13:28:40;9.27;;;4.25;;
81799;SDS011;71195;52.528;5.704;2023-11-21T13:31:11;11.38;;;5.00;;
81799;SDS011;71195;52.528;5.704;2023-11-21T13:33:52;11.30;;;4.57;;
81799;SDS011;71195;52.528;5.704;2023-11-21T13:36:30;12.13;;;5.03;;
81799;SDS011;71195;52.528;5.704;2023-11-21T13:39:00;10.70;;;5.35;;
81799;SDS011;71195;52.528;5.704;2023-11-21T13:44:06;9.45;;;4.00;;
81799;SDS011;71195;52.528;5.704;2023-11-21T13:46:41;9.00;;;4.25;;
81799;SDS011;71195;52.528;5.704;2023-11-21T13:49:11;11.15;;;4.70;;
81799;SDS011;71195;52.528;5.704;2023-11-21T13:51:42;9.98;;;4.50;;
81799;SDS011;71195;52.528;5.704;2023-11-21T13:54:13;5.63;;;4.00;;
81799;SDS011;71195;52.528;5.704;2023-11-21T13:56:45;6.60;;;3.00;;
81799;SDS011;71195;52.528;5.704;2023-11-21T13:59:18;8.30;;;3.25;;
81799;SDS011;71195;52.528;5.704;2023-11-21T14:01:51;7.93;;;3.33;;
81799;SDS011;71195;52.528;5.704;2023-11-21T14:04:25;5.25;;;3.17;;
81799;SDS011;71195;52.528;5.704;2023-11-21T14:07:18;5.72;;;3.60;;
81799;SDS011;71195;52.528;5.704;2023-11-21T14:09:53;5.05;;;2.83;;
81799;SDS011;71195;52.528;5.704;2023-11-21T14:12:24;4.50;;;2.42;;
81799;SDS011;71195;52.528;5.704;2023-11-21T14:14:59;5.38;;;3.45;;
81799;SDS011;71195;52.528;5.704;2023-11-21T14:17:30;6.20;;;2.85;;
81799;SDS011;71195;52.528;5.704;2023-11-21T14:20:04;3.90;;;1.98;;
81799;SDS011;71195;52.528;5.704;2023-11-21T14:22:41;5.70;;;2.70;;
81799;SDS011;71195;52.528;5.704;2023-11-21T14:25:11;4.82;;;1.85;;
81799;SDS011;71195;52.528;5.704;2023-11-21T14:27:43;6.82;;;2.17;;
81799;SDS011;71195;52.528;5.704;2023-11-21T14:30:15;5.57;;;2.28;;
81799;SDS011;71195;52.528;5.704;2023-11-21T14:32:48;6.70;;;2.83;;
81799;SDS011;71195;52.528;5.704;2023-11-21T14:35:19;6.43;;;2.67;;
81799;SDS011;71195;52.528;5.704;2023-11-21T14:37:48;7.38;;;2.40;;
81799;SDS011;71195;52.528;5.704;2023-11-21T14:40:18;5.78;;;2.28;;
81799;SDS011;71195;52.528;5.704;2023-11-21T14:42:50;7.53;;;3.20;;
81799;SDS011;71195;52.528;5.704;2023-11-21T14:45:25;6.05;;;3.05;;
81799;SDS011;71195;52.528;5.704;2023-11-21T14:47:55;4.53;;;2.05;;
81799;SDS011;71195;52.528;5.704;2023-11-21T14:50:32;6.20;;;2.55;;
81799;SDS011;71195;52.528;5.704;2023-11-21T14:53:17;7.10;;;3.05;;
81799;SDS011;71195;52.528;5.704;2023-11-21T14:56:05;3.78;;;2.13;;
81799;SDS011;71195;52.528;5.704;2023-11-21T14:58:35;4.45;;;1.40;;
81799;SDS011;71195;52.528;5.704;2023-11-21T15:01:06;5.53;;;2.10;;
81799;SDS011;71195;52.528;5.704;2023-11-21T15:03:36;4.85;;;2.45;;
81799;SDS011;71195;52.528;5.704;2023-11-21T15:06:15;5.30;;;2.30;;
81799;SDS011;71195;52.528;5.704;2023-11-21T15:08:53;5.15;;;2.05;;
81799;SDS011;71195;52.528;5.704;2023-11-21T15:11:35;5.78;;;2.67;;